createdAt,value
2022-08-07T00:00:28.052Z,23.45
2022-08-07T00:02:56.989Z,23.37
2022-08-07T00:05:25.368Z,23.41
2022-08-07T00:08:00.203Z,23.30
2022-08-07T00:10:31.573Z,23.21
2022-08-07T00:13:09.653Z,23.27
2022-08-07T00:15:51.766Z,23.23
2022-08-07T00:18:24.376Z,23.28
2022-08-07T00:20:54.533Z,23.07
2022-08-07T00:23:24.175Z,23.12
2022-08-07T00:26:00.015Z,22.82
2022-08-07T00:28:33.610Z,22.76
2022-08-07T00:31:05.714Z,22.78
2022-08-07T00:33:35.062Z,22.88
2022-08-07T00:36:03.261Z,22.84
2022-08-07T00:38:33.298Z,22.66
2022-08-07T00:41:02.233Z,22.70
2022-08-07T00:43:59.403Z,22.40
2022-08-07T00:46:18.181Z,22.19
2022-08-07T00:48:49.967Z,22.00
2022-08-07T00:51:20.300Z,21.92
2022-08-07T00:53:55.349Z,21.72
2022-08-07T00:56:30.024Z,21.83
2022-08-07T00:58:58.714Z,21.92
2022-08-07T01:01:27.101Z,21.88
2022-08-07T01:04:00.335Z,21.88
2022-08-07T01:06:29.629Z,21.64
2022-08-07T01:09:01.136Z,21.42
2022-08-07T01:12:09.280Z,21.56
2022-08-07T01:14:28.872Z,21.26
2022-08-07T01:16:59.257Z,21.03
2022-08-07T01:19:32.597Z,21.39
2022-08-07T01:22:03.139Z,21.60
2022-08-07T01:24:32.038Z,21.55
2022-08-07T01:27:01.730Z,21.41
2022-08-07T01:29:33.738Z,21.34
2022-08-07T01:32:05.393Z,21.49
2022-08-07T01:34:39.921Z,21.60
2022-08-07T01:37:09.750Z,21.59
2022-08-07T01:39:40.643Z,21.38
2022-08-07T01:42:38.778Z,21.16
2022-08-07T01:45:09.658Z,21.26
2022-08-07T01:48:18.954Z,21.38
2022-08-07T01:50:33.323Z,21.51
2022-08-07T01:53:08.882Z,21.42
2022-08-07T01:55:43.788Z,21.40
2022-08-07T01:58:27.429Z,21.20
2022-08-07T02:01:25.689Z,20.95
2022-08-07T02:03:58.665Z,20.87
2022-08-07T02:06:31.590Z,20.88
2022-08-07T02:09:05.231Z,20.94
2022-08-07T02:12:04.942Z,20.72
2022-08-07T02:14:40.483Z,20.55
2022-08-07T02:17:10.943Z,20.43
2022-08-07T02:20:04.299Z,20.51
2022-08-07T02:22:32.573Z,20.47
2022-08-07T02:25:13.632Z,20.72
2022-08-07T02:27:44.221Z,20.86
2022-08-07T02:30:20.562Z,20.97
2022-08-07T02:33:03.928Z,20.93
2022-08-07T02:36:29.455Z,21.02
2022-08-07T02:38:31.835Z,21.14
2022-08-07T02:41:03.898Z,21.20
2022-08-07T02:43:32.685Z,21.25
2022-08-07T02:46:02.671Z,21.25
2022-08-07T02:48:31.774Z,21.33
2022-08-07T02:51:06.739Z,21.38
2022-08-07T02:53:38.919Z,21.13
2022-08-07T02:56:21.226Z,20.62
2022-08-07T02:58:54.071Z,20.47
2022-08-07T03:01:35.291Z,20.37
2022-08-07T03:04:07.704Z,20.35
2022-08-07T03:06:42.186Z,20.32
2022-08-07T03:09:13.783Z,20.38
2022-08-07T03:11:51.592Z,20.28
2022-08-07T03:14:22.540Z,20.26
2022-08-07T03:16:50.765Z,20.09
2022-08-07T03:19:21.460Z,20.12
2022-08-07T03:21:51.155Z,19.68
2022-08-07T03:24:27.563Z,19.73
2022-08-07T03:27:03.434Z,19.95
2022-08-07T03:29:36.826Z,20.09
2022-08-07T03:32:13.362Z,20.30
2022-08-07T03:34:47.569Z,20.18
2022-08-07T03:37:45.950Z,20.21
2022-08-07T03:40:22.342Z,20.05
2022-08-07T03:42:52.867Z,20.12
2022-08-07T03:45:31.110Z,20.06
2022-08-07T03:48:00.120Z,20.16
2022-08-07T03:50:29.302Z,20.10
2022-08-07T03:52:59.576Z,19.94
2022-08-07T03:55:57.947Z,20.04
2022-08-07T03:59:04.835Z,20.03
2022-08-07T04:01:11.146Z,20.18
2022-08-07T04:03:53.361Z,20.30
2022-08-07T04:06:37.577Z,20.36
2022-08-07T04:09:15.423Z,20.29
2022-08-07T04:12:24.346Z,20.37
2022-08-07T04:14:39.009Z,20.21
2022-08-07T04:18:31.916Z,20.21
2022-08-07T04:20:01.270Z,20.28
2022-08-07T04:22:30.052Z,20.14
2022-08-07T04:25:00.967Z,20.04
2022-08-07T04:27:35.751Z,19.95
2022-08-07T04:30:21.455Z,19.91
2022-08-07T04:32:58.834Z,20.02
2022-08-07T04:35:27.097Z,20.08
2022-08-07T04:38:06.350Z,20.12
2022-08-07T04:40:35.052Z,20.18
2022-08-07T04:43:03.539Z,20.20
2022-08-07T04:45:57.437Z,20.19
2022-08-07T04:48:40.901Z,20.27
2022-08-07T04:51:20.555Z,20.22
2022-08-07T04:54:06.407Z,20.15
2022-08-07T04:58:11.507Z,20.15
2022-08-07T05:00:12.343Z,20.17
2022-08-07T05:02:31.633Z,20.01
2022-08-07T05:05:51.864Z,19.89
2022-08-07T05:07:59.458Z,19.92
2022-08-07T05:10:35.123Z,20.10
2022-08-07T05:14:53.338Z,20.15
2022-08-07T05:16:04.588Z,20.17
2022-08-07T05:18:37.180Z,19.96
2022-08-07T05:21:09.831Z,20.09
2022-08-07T05:23:43.005Z,19.63
2022-08-07T05:26:24.578Z,19.62
2022-08-07T05:28:56.342Z,19.62
2022-08-07T05:31:34.636Z,19.55
2022-08-07T05:34:12.241Z,19.95
2022-08-07T05:36:43.232Z,20.08
2022-08-07T05:40:06.359Z,20.40
2022-08-07T05:42:05.293Z,20.06
2022-08-07T05:44:46.388Z,20.21
2022-08-07T05:47:38.608Z,20.14
2022-08-07T05:50:11.780Z,19.98
2022-08-07T05:52:40.039Z,20.40
2022-08-07T05:55:10.760Z,20.83
2022-08-07T05:57:42.410Z,20.67
2022-08-07T06:00:16.652Z,21.02
2022-08-07T06:02:50.096Z,21.12
2022-08-07T06:05:25.993Z,21.07
2022-08-07T06:08:13.169Z,21.30
2022-08-07T06:10:45.898Z,21.91
2022-08-07T06:13:19.444Z,22.72
2022-08-07T06:16:10.213Z,23.82
2022-08-07T06:18:43.077Z,24.34
2022-08-07T06:22:14.276Z,24.82
2022-08-07T06:24:37.909Z,25.36
2022-08-07T06:26:50.813Z,25.63
2022-08-07T06:29:18.866Z,25.82
2022-08-07T06:31:49.791Z,25.95
2022-08-07T06:34:19.851Z,25.55
2022-08-07T06:36:51.941Z,26.68
2022-08-07T06:40:16.941Z,27.68
2022-08-07T06:42:11.678Z,28.34
2022-08-07T06:44:43.409Z,28.87
2022-08-07T06:47:12.531Z,29.17
2022-08-07T06:49:51.807Z,29.52
2022-08-07T06:52:31.353Z,29.16
2022-08-07T06:55:33.712Z,29.22
2022-08-07T06:57:57.238Z,29.20
2022-08-07T07:00:29.075Z,27.82
2022-08-07T07:03:00.989Z,28.24
2022-08-07T07:06:02.763Z,27.10
2022-08-07T07:08:33.030Z,29.00
2022-08-07T07:11:01.492Z,30.26
2022-08-07T07:13:57.790Z,30.56
2022-08-07T07:16:39.205Z,30.99
2022-08-07T07:19:55.286Z,30.90
2022-08-07T07:22:36.771Z,30.66
2022-08-07T07:26:31.280Z,30.75
2022-08-07T07:28:03.395Z,30.73
2022-08-07T07:30:39.677Z,30.96
2022-08-07T07:33:11.727Z,31.36
2022-08-07T07:36:04.656Z,31.29
2022-08-07T07:38:35.802Z,31.41
2022-08-07T07:41:10.789Z,31.89
2022-08-07T07:44:14.696Z,31.41
2022-08-07T07:46:37.765Z,31.88
2022-08-07T07:50:34.145Z,32.56
2022-08-07T07:52:13.011Z,32.22
2022-08-07T07:54:44.214Z,32.42
2022-08-07T07:57:43.695Z,31.94
2022-08-07T08:00:12.400Z,31.92
2022-08-07T08:03:05.303Z,31.30
2022-08-07T08:05:50.954Z,30.31
2022-08-07T08:08:35.134Z,31.04
2022-08-07T08:11:08.364Z,31.67
2022-08-07T08:13:54.995Z,32.00
2022-08-07T08:16:31.027Z,31.58
2022-08-07T08:19:17.947Z,30.20
2022-08-07T08:22:09.763Z,30.38
2022-08-07T08:25:18.198Z,30.42
2022-08-07T08:28:02.002Z,29.02
2022-08-07T08:30:42.608Z,27.75
2022-08-07T08:33:17.148Z,27.50
2022-08-07T08:35:50.641Z,27.88
2022-08-07T08:38:29.517Z,27.99
2022-08-07T08:41:14.520Z,27.95
2022-08-07T08:43:58.836Z,27.97
2022-08-07T08:46:40.681Z,27.56
2022-08-07T08:49:33.548Z,27.41
2022-08-07T08:52:19.042Z,26.97
2022-08-07T08:54:55.430Z,26.65
2022-08-07T08:57:41.677Z,26.67
2022-08-07T09:00:12.016Z,26.87
2022-08-07T09:03:00.822Z,27.40
2022-08-07T09:05:38.742Z,27.91
2022-08-07T09:08:28.713Z,27.85
2022-08-07T09:11:05.249Z,27.93
2022-08-07T09:13:42.180Z,27.82
2022-08-07T09:16:24.389Z,27.85
2022-08-07T09:19:53.556Z,27.94
2022-08-07T09:24:27.218Z,27.70
2022-08-07T09:25:17.406Z,27.84
2022-08-07T09:28:02.991Z,27.58
2022-08-07T09:30:43.182Z,27.86
2022-08-07T09:33:40.870Z,28.14
2022-08-07T09:36:16.856Z,28.40
2022-08-07T09:38:55.297Z,28.44
2022-08-07T09:41:58.366Z,28.35
2022-08-07T09:44:58.388Z,27.94
2022-08-07T09:47:59.972Z,27.33
2022-08-07T09:50:37.393Z,28.03
2022-08-07T09:53:12.724Z,27.46
2022-08-07T09:56:04.487Z,27.80
2022-08-07T09:59:07.528Z,28.17
2022-08-07T10:02:14.638Z,28.44
2022-08-07T10:05:58.293Z,28.39
2022-08-07T10:08:38.884Z,28.73
2022-08-07T10:12:02.013Z,28.49
2022-08-07T10:14:56.446Z,29.05
2022-08-07T10:18:01.777Z,29.63
2022-08-07T10:20:44.571Z,29.47
2022-08-07T10:24:05.122Z,29.16
2022-08-07T10:26:53.487Z,28.56
2022-08-07T10:30:03.887Z,28.88
2022-08-07T10:32:52.815Z,28.95
2022-08-07T10:35:55.347Z,28.85
2022-08-07T10:38:36.148Z,28.77
2022-08-07T10:41:46.937Z,29.12
2022-08-07T10:44:17.065Z,29.71
2022-08-07T10:46:55.234Z,29.58
2022-08-07T10:49:49.187Z,29.56
2022-08-07T10:52:31.861Z,29.01
2022-08-07T10:55:27.059Z,29.30
2022-08-07T10:58:14.619Z,29.43
2022-08-07T11:00:59.081Z,29.14
2022-08-07T11:03:54.958Z,28.21
2022-08-07T11:06:38.436Z,28.91
2022-08-07T11:10:07.107Z,29.15
2022-08-07T11:12:06.987Z,29.62
2022-08-07T11:14:59.911Z,29.56
2022-08-07T11:17:43.489Z,29.52
2022-08-07T11:20:22.580Z,29.73
2022-08-07T11:23:02.850Z,30.30
2022-08-07T11:25:48.017Z,30.21
2022-08-07T11:28:24.659Z,29.42
2022-08-07T11:30:59.107Z,29.51
2022-08-07T11:33:53.673Z,30.09
2022-08-07T11:36:39.704Z,30.65
2022-08-07T11:39:20.367Z,30.65
2022-08-07T11:42:01.922Z,31.22
2022-08-07T11:44:39.531Z,31.11
2022-08-07T11:47:39.028Z,30.92
2022-08-07T11:50:44.678Z,31.27
2022-08-07T11:53:57.059Z,31.22
2022-08-07T11:56:42.641Z,30.86
2022-08-07T12:00:10.852Z,29.92
2022-08-07T12:02:35.128Z,30.13
2022-08-07T12:05:28.704Z,29.96
2022-08-07T12:08:31.535Z,30.51
2022-08-07T12:11:21.942Z,30.34
2022-08-07T12:13:58.181Z,30.81
2022-08-07T12:16:30.564Z,30.98
2022-08-07T12:19:07.659Z,30.97
2022-08-07T12:22:35.895Z,31.16
2022-08-07T12:25:07.684Z,30.91
2022-08-07T12:28:09.925Z,31.12
2022-08-07T12:30:34.513Z,31.11
2022-08-07T12:33:18.849Z,31.45
2022-08-07T12:35:58.205Z,31.79
2022-08-07T12:38:32.056Z,31.89
2022-08-07T12:41:13.903Z,31.80
2022-08-07T12:44:02.907Z,31.39
2022-08-07T12:46:42.312Z,31.24
2022-08-07T12:49:39.823Z,31.68
2022-08-07T12:52:19.212Z,31.79
2022-08-07T12:55:03.915Z,31.90
2022-08-07T12:58:01.203Z,31.82
2022-08-07T13:00:41.686Z,32.03
2022-08-07T13:03:54.942Z,32.64
2022-08-07T13:07:00.894Z,32.25
2022-08-07T13:10:19.373Z,32.67
2022-08-07T13:12:47.619Z,32.83
2022-08-07T13:15:29.525Z,33.01
2022-08-07T13:18:26.432Z,33.15
2022-08-07T13:21:07.130Z,32.95
2022-08-07T13:24:04.186Z,33.08
2022-08-07T13:26:38.660Z,32.69
2022-08-07T13:29:15.516Z,32.56
2022-08-07T13:31:57.377Z,32.49
2022-08-07T13:34:36.667Z,32.55
2022-08-07T13:37:20.011Z,32.50
2022-08-07T13:40:36.305Z,32.77
2022-08-07T13:42:59.874Z,32.53
2022-08-07T13:46:11.254Z,32.84
2022-08-07T13:48:34.288Z,31.39
2022-08-07T13:51:29.242Z,30.99
2022-08-07T13:54:03.465Z,31.73
2022-08-07T13:56:35.755Z,32.35
2022-08-07T13:59:15.751Z,32.58
2022-08-07T14:02:04.057Z,32.40
2022-08-07T14:04:50.247Z,32.02
2022-08-07T14:07:25.506Z,32.49
2022-08-07T14:10:14.966Z,32.33
2022-08-07T14:12:55.718Z,31.89
2022-08-07T14:15:32.046Z,31.80
2022-08-07T14:18:24.019Z,31.59
2022-08-07T14:21:20.993Z,31.88
2022-08-07T14:24:02.039Z,31.57
2022-08-07T14:26:39.131Z,32.14
2022-08-07T14:30:09.337Z,31.98
2022-08-07T14:32:07.911Z,32.42
2022-08-07T14:34:45.720Z,31.97
2022-08-07T14:37:17.696Z,32.09
2022-08-07T14:40:16.078Z,32.09
2022-08-07T14:43:01.008Z,31.86
2022-08-07T14:45:48.691Z,32.37
2022-08-07T14:48:20.692Z,32.22
2022-08-07T14:50:53.243Z,32.10
2022-08-07T14:54:08.703Z,31.61
2022-08-07T14:56:14.160Z,32.38
2022-08-07T14:58:54.965Z,32.80
2022-08-07T15:01:28.380Z,32.89
2022-08-07T15:04:13.822Z,32.96
2022-08-07T15:06:47.919Z,33.01
2022-08-07T15:09:57.234Z,32.91
2022-08-07T15:15:21.131Z,32.16
2022-08-07T15:17:58.906Z,32.53
2022-08-07T15:20:54.578Z,32.90
2022-08-07T15:25:12.791Z,32.61
2022-08-07T15:26:22.946Z,32.39
2022-08-07T15:30:10.283Z,32.59
2022-08-07T15:31:57.620Z,32.61
2022-08-07T15:37:27.902Z,32.63
2022-08-07T15:40:01.694Z,32.50
2022-08-07T15:42:55.775Z,32.58
2022-08-07T15:45:55.820Z,33.00
2022-08-07T15:51:16.921Z,33.04
2022-08-07T15:53:52.966Z,32.37
2022-08-07T15:56:34.074Z,32.81
2022-08-07T15:59:05.671Z,32.97
2022-08-07T16:01:39.401Z,33.04
2022-08-07T16:04:14.606Z,33.15
2022-08-07T16:06:50.058Z,33.02
2022-08-07T16:09:41.938Z,32.31
2022-08-07T16:12:25.021Z,32.33
2022-08-07T16:15:06.220Z,32.78
2022-08-07T16:18:02.135Z,33.08
2022-08-07T16:20:43.523Z,33.30
2022-08-07T16:23:54.587Z,33.32
2022-08-07T16:26:59.014Z,32.38
2022-08-07T16:30:10.030Z,32.75
2022-08-07T16:32:36.968Z,32.98
2022-08-07T16:35:56.337Z,33.33
2022-08-07T16:39:00.720Z,32.87
2022-08-07T16:41:41.278Z,32.84
2022-08-07T16:45:14.409Z,32.64
2022-08-07T16:47:56.503Z,32.94
2022-08-07T16:51:20.568Z,33.01
2022-08-07T16:54:32.830Z,32.91
2022-08-07T16:57:15.792Z,32.74
2022-08-07T17:00:05.498Z,32.46
2022-08-07T17:03:05.118Z,32.58
2022-08-07T17:06:28.167Z,32.46
2022-08-07T17:09:09.173Z,32.49
2022-08-07T17:12:04.303Z,32.39
2022-08-07T17:14:43.072Z,32.09
2022-08-07T17:17:44.281Z,32.07
2022-08-07T17:20:30.039Z,32.08
2022-08-07T17:23:16.710Z,32.09
2022-08-07T17:25:57.104Z,32.34
2022-08-07T17:28:38.274Z,32.03
2022-08-07T17:31:16.267Z,32.24
2022-08-07T17:34:15.071Z,32.09
2022-08-07T17:36:57.648Z,32.23
2022-08-07T17:39:57.741Z,32.31
2022-08-07T17:42:59.330Z,32.12
2022-08-07T17:45:35.023Z,31.97
2022-08-07T17:48:10.313Z,31.70
2022-08-07T17:51:01.680Z,31.52
2022-08-07T17:54:01.202Z,31.56
2022-08-07T17:56:33.639Z,31.37
2022-08-07T17:59:17.107Z,31.23
2022-08-07T18:01:57.068Z,31.15
2022-08-07T18:04:34.544Z,31.09
2022-08-07T18:07:22.712Z,31.05
2022-08-07T18:10:07.557Z,30.83
2022-08-07T18:13:09.785Z,30.41
2022-08-07T18:15:53.538Z,30.12
2022-08-07T18:18:46.258Z,29.73
2022-08-07T18:21:37.068Z,29.59
2022-08-07T18:24:33.938Z,29.46
2022-08-07T18:27:39.047Z,29.28
2022-08-07T18:30:31.570Z,29.20
2022-08-07T18:33:30.251Z,29.09
2022-08-07T18:36:14.147Z,29.03
2022-08-07T18:39:01.686Z,28.92
2022-08-07T18:41:56.174Z,28.84
2022-08-07T18:45:40.308Z,28.55
2022-08-07T18:47:37.993Z,28.52
2022-08-07T18:50:46.303Z,28.38
2022-08-07T18:53:37.046Z,28.28
2022-08-07T18:56:14.952Z,28.37
2022-08-07T18:59:47.668Z,28.44
2022-08-07T19:02:20.202Z,28.50
2022-08-07T19:05:15.081Z,28.20
2022-08-07T19:07:58.611Z,27.86
2022-08-07T19:10:49.889Z,27.78
2022-08-07T19:13:27.441Z,27.88
2022-08-07T19:17:00.747Z,27.77
2022-08-07T19:19:03.612Z,27.57
2022-08-07T19:21:47.802Z,27.49
2022-08-07T19:24:32.264Z,27.33
2022-08-07T19:28:30.744Z,27.32
2022-08-07T19:31:02.942Z,27.35
2022-08-07T19:32:51.175Z,27.44
2022-08-07T19:35:24.610Z,27.33
2022-08-07T19:37:59.524Z,27.28
2022-08-07T19:40:33.321Z,27.25
2022-08-07T19:43:10.613Z,27.18
2022-08-07T19:46:01.099Z,27.11
2022-08-07T19:48:42.646Z,26.95
2022-08-07T19:51:20.409Z,27.01
2022-08-07T19:54:32.313Z,26.97
2022-08-07T19:58:03.350Z,26.83
2022-08-07T19:59:41.656Z,26.84
2022-08-07T20:02:19.546Z,26.82
2022-08-07T20:04:56.066Z,26.70
2022-08-07T20:07:46.266Z,26.66
2022-08-07T20:10:35.427Z,26.64
2022-08-07T20:13:23.212Z,26.50
2022-08-07T20:15:57.733Z,26.39
2022-08-07T20:18:32.721Z,26.37
2022-08-07T20:21:21.045Z,26.34
2022-08-07T20:23:54.216Z,26.25
2022-08-07T20:26:32.212Z,26.06
2022-08-07T20:29:10.593Z,26.14
2022-08-07T20:31:48.666Z,26.05
2022-08-07T20:34:34.570Z,26.04
2022-08-07T20:37:12.446Z,25.81
2022-08-07T20:40:02.634Z,25.82
2022-08-07T20:42:33.781Z,25.89
2022-08-07T20:45:33.265Z,25.75
2022-08-07T20:47:58.174Z,25.65
2022-08-07T20:50:30.316Z,25.58
2022-08-07T20:53:00.803Z,25.46
2022-08-07T20:55:32.152Z,25.42
2022-08-07T20:58:12.011Z,25.47
2022-08-07T21:00:53.424Z,25.32
2022-08-07T21:03:25.605Z,25.25
2022-08-07T21:05:57.140Z,25.25
2022-08-07T21:08:36.855Z,25.21
2022-08-07T21:11:11.907Z,25.12
2022-08-07T21:14:16.164Z,25.06
2022-08-07T21:16:55.887Z,24.92
2022-08-07T21:19:32.145Z,25.02
2022-08-07T21:22:19.473Z,24.82
2022-08-07T21:25:12.377Z,24.68
2022-08-07T21:28:08.914Z,24.62
2022-08-07T21:30:47.950Z,24.71
2022-08-07T21:33:38.447Z,24.59
2022-08-07T21:36:31.843Z,24.51
2022-08-07T21:39:46.469Z,24.52
2022-08-07T21:42:14.870Z,24.40
2022-08-07T21:44:58.170Z,24.47
2022-08-07T21:47:35.891Z,24.41
2022-08-07T21:50:16.873Z,24.39
2022-08-07T21:52:51.141Z,24.47
2022-08-07T21:55:28.385Z,24.46
2022-08-07T21:58:12.078Z,24.39
2022-08-07T22:00:54.491Z,24.41
2022-08-07T22:03:31.458Z,24.45
2022-08-07T22:06:30.943Z,24.29
2022-08-07T22:09:07.034Z,24.34
2022-08-07T22:11:53.349Z,24.24
2022-08-07T22:14:38.732Z,24.09
2022-08-07T22:17:30.195Z,24.00
2022-08-07T22:20:23.208Z,23.89
2022-08-07T22:22:57.723Z,23.91
2022-08-07T22:25:38.912Z,23.79
2022-08-07T22:28:31.637Z,23.70
2022-08-07T22:31:11.088Z,23.62
2022-08-07T22:33:57.133Z,23.51
2022-08-07T22:36:38.560Z,23.55
2022-08-07T22:39:14.301Z,23.65
2022-08-07T22:42:03.302Z,23.71
2022-08-07T22:44:58.133Z,23.73
2022-08-07T22:48:02.961Z,23.67
2022-08-07T22:50:53.518Z,23.50
2022-08-07T22:54:06.978Z,23.54
2022-08-07T22:56:42.207Z,23.61
2022-08-07T22:59:46.096Z,23.51
2022-08-07T23:02:43.561Z,23.37
2022-08-07T23:06:15.772Z,23.13
2022-08-07T23:08:45.220Z,22.95
2022-08-07T23:11:41.292Z,22.65
2022-08-07T23:14:31.069Z,22.17
2022-08-07T23:17:27.218Z,22.30
2022-08-07T23:20:52.827Z,22.22
2022-08-07T23:24:06.427Z,22.32
2022-08-07T23:26:54.781Z,22.25
2022-08-07T23:30:37.888Z,21.96
2022-08-07T23:34:22.687Z,21.50
2022-08-07T23:36:29.226Z,21.70
2022-08-07T23:39:13.769Z,21.71
2022-08-07T23:42:04.070Z,21.68
2022-08-07T23:44:56.399Z,21.67
2022-08-07T23:47:46.555Z,21.58
2022-08-07T23:50:29.997Z,21.56
2022-08-07T23:53:17.501Z,21.54
2022-08-07T23:55:57.200Z,21.65
2022-08-07T23:58:39.098Z,21.77
